createdAt,value
2023-02-18T00:00:42.194Z,100595.47
2023-02-18T00:05:44.996Z,100607.09
2023-02-18T00:10:49.250Z,100601.84
2023-02-18T00:15:52.232Z,100593.53
2023-02-18T00:20:55.021Z,100604.53
2023-02-18T00:26:02.749Z,100609.91
2023-02-18T00:31:09.129Z,100612.47
2023-02-18T00:36:13.084Z,100610.63
2023-02-18T00:41:17.361Z,100606.22
2023-02-18T00:46:20.206Z,100611.81
2023-02-18T00:51:23.038Z,100604.88
2023-02-18T00:56:27.206Z,100606.44
2023-02-18T01:01:30.463Z,100602.19
2023-02-18T01:06:33.359Z,100600.59
2023-02-18T01:11:37.649Z,100601.56
2023-02-18T01:16:40.469Z,100605.97
2023-02-18T01:21:44.387Z,100604.97
2023-02-18T01:26:48.551Z,100603.75
2023-02-18T01:31:51.775Z,100602.28
2023-02-18T01:36:56.307Z,100599.94
2023-02-18T01:42:00.497Z,100600.72
2023-02-18T01:47:03.286Z,100596.66
2023-02-18T01:52:07.735Z,100602.53
2023-02-18T01:57:13.253Z,100613.28
2023-02-18T02:02:18.136Z,100631.56
2023-02-18T02:07:21.745Z,100617.16
2023-02-18T02:12:50.159Z,100619.97
2023-02-18T02:18:00.950Z,100618.72
2023-02-18T02:23:36.114Z,100632.19
2023-02-18T02:29:01.911Z,100624.03
2023-02-18T02:34:33.506Z,100633.06
2023-02-18T02:39:39.078Z,100625.63
2023-02-18T02:44:45.526Z,100622.31
2023-02-18T02:49:55.002Z,100619.25
2023-02-18T02:54:57.904Z,100616.69
2023-02-18T03:00:02.723Z,100609.59
2023-02-18T03:05:15.277Z,100597.88
2023-02-18T03:10:37.567Z,100588.97
2023-02-18T03:15:43.430Z,100592.72
2023-02-18T03:20:52.081Z,100591.97
2023-02-18T03:25:55.244Z,100583.91
2023-02-18T03:31:01.276Z,100592.09
2023-02-18T03:36:06.467Z,100592.66
2023-02-18T03:41:09.533Z,100596.03
2023-02-18T03:46:13.792Z,100591.75
2023-02-18T03:51:18.169Z,100592.06
2023-02-18T03:56:20.984Z,100583.28
2023-02-18T04:01:23.862Z,100586.72
2023-02-18T04:06:28.073Z,100592.19
2023-02-18T04:11:30.925Z,100587.81
2023-02-18T04:16:33.781Z,100587.06
2023-02-18T04:21:38.004Z,100578.28
2023-02-18T04:26:40.852Z,100581.81
2023-02-18T04:31:43.762Z,100597.94
2023-02-18T04:36:48.073Z,100592.56
2023-02-18T04:41:50.957Z,100591.69
2023-02-18T04:46:53.753Z,100583.25
2023-02-18T04:51:58.032Z,100574.56
2023-02-18T04:57:00.839Z,100563.94
2023-02-18T05:02:03.595Z,100553.53
2023-02-18T05:07:07.897Z,100540.25
2023-02-18T05:12:10.780Z,100540.47
2023-02-18T05:17:13.615Z,100526.28
2023-02-18T05:22:17.757Z,100509.69
2023-02-18T05:27:20.550Z,100499.53
2023-02-18T05:32:23.380Z,100495.59
2023-02-18T05:37:27.560Z,100489.59
2023-02-18T05:42:30.658Z,100477.38
2023-02-18T05:47:33.462Z,100471.47
2023-02-18T05:52:37.566Z,100463.75
2023-02-18T05:57:40.923Z,100462.91
2023-02-18T06:02:43.728Z,100466.66
2023-02-18T06:07:47.969Z,100450.41
2023-02-18T06:12:50.828Z,100464.44
2023-02-18T06:17:53.625Z,100472.72
2023-02-18T06:22:57.734Z,100468.31
2023-02-18T06:28:00.507Z,100464.16
2023-02-18T06:33:04.193Z,100464.38
2023-02-18T06:38:08.435Z,100453.03
2023-02-18T06:43:11.351Z,100452.28
2023-02-18T06:48:16.786Z,100445.44
2023-02-18T06:53:20.967Z,100438.47
2023-02-18T06:58:24.282Z,100425.31
2023-02-18T07:03:27.166Z,100421.84
2023-02-18T07:08:33.066Z,100415.00
2023-02-18T07:13:35.928Z,100407.84
2023-02-18T07:18:38.691Z,100394.78
2023-02-18T07:23:42.887Z,100380.00
2023-02-18T07:28:45.690Z,100383.53
2023-02-18T07:33:48.524Z,100372.91
2023-02-18T07:38:52.661Z,100372.06
2023-02-18T07:43:55.568Z,100365.13
2023-02-18T07:48:58.363Z,100354.59
2023-02-18T07:54:02.448Z,100352.91
2023-02-18T07:59:05.234Z,100325.59
2023-02-18T08:04:08.141Z,100338.19
2023-02-18T08:09:12.362Z,100323.84
2023-02-18T08:14:15.170Z,100323.28
2023-02-18T08:19:17.940Z,100319.81
2023-02-18T08:24:22.123Z,100313.88
2023-02-18T08:29:24.920Z,100295.63
2023-02-18T08:34:27.788Z,100288.72
2023-02-18T08:39:34.834Z,100280.38
2023-02-18T08:44:37.688Z,100281.41
2023-02-18T08:49:40.436Z,100277.38
2023-02-18T08:54:44.593Z,100276.06
2023-02-18T08:59:47.546Z,100269.38
2023-02-18T09:04:50.522Z,100255.25
2023-02-18T09:09:54.824Z,100249.56
2023-02-18T09:14:58.057Z,100242.13
2023-02-18T09:20:01.017Z,100234.56
2023-02-18T09:25:05.894Z,100237.25
2023-02-18T09:30:09.520Z,100242.41
2023-02-18T09:35:12.367Z,100228.88
2023-02-18T09:40:25.224Z,100220.59
2023-02-18T09:45:28.498Z,100210.59
2023-02-18T09:50:33.257Z,100213.16
2023-02-18T09:55:39.478Z,100187.44
2023-02-18T10:00:43.652Z,100180.00
2023-02-18T10:05:52.235Z,100162.44
2023-02-18T10:10:56.485Z,100165.38
2023-02-18T10:15:59.435Z,100156.06
2023-02-18T10:21:07.364Z,100150.22
2023-02-18T10:26:14.410Z,100133.00
2023-02-18T10:31:19.577Z,100116.44
2023-02-18T10:36:26.736Z,100109.09
2023-02-18T10:41:33.398Z,100096.41
2023-02-18T10:46:38.690Z,100103.34
2023-02-18T10:51:43.655Z,100085.53
2023-02-18T10:56:50.362Z,100090.75
2023-02-18T11:01:56.215Z,100091.38
2023-02-18T11:07:02.817Z,100085.16
2023-02-18T11:12:09.158Z,100090.53
2023-02-18T11:17:22.055Z,100069.06
2023-02-18T11:22:26.403Z,100076.13
2023-02-18T11:27:32.949Z,100068.06
2023-02-18T11:32:36.348Z,100064.41
2023-02-18T11:37:39.266Z,100059.16
2023-02-18T11:42:43.545Z,100040.38
2023-02-18T11:47:46.560Z,100036.44
2023-02-18T11:52:50.002Z,100035.00
2023-02-18T11:57:57.049Z,100014.66
2023-02-18T12:02:59.864Z,100013.91
2023-02-18T12:08:04.581Z,100007.94
2023-02-18T12:13:09.822Z,100007.53
2023-02-18T12:18:51.008Z,100007.69
2023-02-18T12:23:58.817Z,100009.66
2023-02-18T12:29:11.121Z,100024.91
2023-02-18T12:34:24.678Z,100006.84
2023-02-18T12:39:35.953Z,100002.19
2023-02-18T12:44:45.629Z,99991.56
2023-02-18T12:50:00.463Z,99987.81
2023-02-18T12:55:28.696Z,99982.44
2023-02-18T13:01:19.076Z,99994.75
2023-02-18T13:06:28.662Z,99996.56
2023-02-18T13:11:37.767Z,99998.41
2023-02-18T13:16:43.272Z,100008.16
2023-02-18T13:21:46.648Z,100000.09
2023-02-18T13:26:49.949Z,99996.44
2023-02-18T13:32:00.476Z,100002.78
2023-02-18T13:37:07.969Z,99993.91
2023-02-18T13:42:28.562Z,100007.19
2023-02-18T13:47:39.266Z,100012.56
2023-02-18T13:52:42.954Z,100009.72
2023-02-18T13:57:47.299Z,100014.97
2023-02-18T14:02:59.006Z,100002.53
2023-02-18T14:08:07.934Z,100008.03
2023-02-18T14:13:25.860Z,100016.81
2023-02-18T14:18:37.051Z,100009.00
2023-02-18T14:23:42.207Z,100032.47
2023-02-18T14:28:45.878Z,100032.66
2023-02-18T14:33:54.076Z,100022.88
2023-02-18T14:38:59.411Z,100036.31
2023-02-18T14:44:21.250Z,100020.19
2023-02-18T14:49:35.833Z,100026.06
2023-02-18T14:54:38.898Z,100022.38
2023-02-18T14:59:42.497Z,100025.78
2023-02-18T15:04:47.480Z,100037.28
2023-02-18T15:09:51.559Z,100055.81
2023-02-18T15:14:54.805Z,100061.16
2023-02-18T15:19:59.790Z,100060.06
2023-02-18T15:25:02.837Z,100074.72
2023-02-18T15:30:16.495Z,100085.47
2023-02-18T15:35:23.016Z,100090.97
2023-02-18T15:40:27.317Z,100076.81
2023-02-18T15:45:31.952Z,100075.94
2023-02-18T15:50:37.049Z,100097.28
2023-02-18T15:55:40.805Z,100096.84
2023-02-18T16:00:48.476Z,100095.13
2023-02-18T16:05:53.023Z,100106.00
2023-02-18T16:10:56.600Z,100094.03
2023-02-18T16:16:01.099Z,100109.88
2023-02-18T16:21:09.777Z,100117.56
2023-02-18T16:26:21.622Z,100114.63
2023-02-18T16:31:24.833Z,100122.41
2023-02-18T16:36:29.278Z,100125.00
2023-02-18T16:41:32.062Z,100134.75
2023-02-18T16:46:35.439Z,100136.34
2023-02-18T16:51:42.251Z,100148.78
2023-02-18T16:56:45.240Z,100153.91
2023-02-18T17:01:48.021Z,100154.66
2023-02-18T17:06:52.207Z,100154.66
2023-02-18T17:11:55.887Z,100150.13
2023-02-18T17:16:58.773Z,100166.25
2023-02-18T17:22:02.893Z,100175.16
2023-02-18T17:27:05.690Z,100194.81
2023-02-18T17:32:08.593Z,100204.84
2023-02-18T17:37:13.551Z,100201.75
2023-02-18T17:42:16.857Z,100203.59
2023-02-18T17:47:19.670Z,100211.03
2023-02-18T17:52:30.764Z,100230.53
2023-02-18T17:57:33.543Z,100244.38
2023-02-18T18:02:36.309Z,100255.97
2023-02-18T18:07:40.516Z,100255.56
2023-02-18T18:12:43.693Z,100269.97
2023-02-18T18:17:46.781Z,100265.22
2023-02-18T18:22:51.139Z,100273.50
2023-02-18T18:27:54.093Z,100271.66
2023-02-18T18:32:57.108Z,100272.16
2023-02-18T18:38:03.334Z,100279.09
2023-02-18T18:43:06.424Z,100280.81
2023-02-18T18:48:09.184Z,100282.78
2023-02-18T18:53:20.719Z,100287.28
2023-02-18T18:58:24.544Z,100295.22
2023-02-18T19:03:27.959Z,100294.00
2023-02-18T19:08:32.378Z,100287.25
2023-02-18T19:13:36.647Z,100298.84
2023-02-18T19:18:39.448Z,100286.88
2023-02-18T19:23:43.981Z,100289.09
2023-02-18T19:28:46.852Z,100290.28
2023-02-18T19:33:51.398Z,100304.72
2023-02-18T19:38:55.679Z,100290.03
2023-02-18T19:43:58.546Z,100295.16
2023-02-18T19:49:01.393Z,100301.41
2023-02-18T19:54:05.724Z,100306.66
2023-02-18T19:59:08.639Z,100317.53
2023-02-18T20:04:11.526Z,100300.41
2023-02-18T20:09:15.808Z,100319.97
2023-02-18T20:14:20.432Z,100328.47
2023-02-18T20:19:24.798Z,100333.75
2023-02-18T20:24:29.745Z,100337.28
2023-02-18T20:29:33.552Z,100334.72
2023-02-18T20:34:36.391Z,100334.22
2023-02-18T20:39:40.504Z,100325.44
2023-02-18T20:44:43.269Z,100320.91
2023-02-18T20:49:46.657Z,100317.84
2023-02-18T20:54:50.843Z,100325.91
2023-02-18T20:59:53.811Z,100319.66
2023-02-18T21:04:56.686Z,100316.84
2023-02-18T21:10:00.921Z,100312.47
2023-02-18T21:15:03.963Z,100311.47
2023-02-18T21:20:08.128Z,100330.31
2023-02-18T21:25:13.787Z,100331.19
2023-02-18T21:30:16.765Z,100327.50
2023-02-18T21:35:19.575Z,100329.34
2023-02-18T21:40:23.769Z,100323.97
2023-02-18T21:45:27.467Z,100315.16
2023-02-18T21:50:30.269Z,100316.00
2023-02-18T21:55:34.677Z,100318.59
2023-02-18T22:00:37.442Z,100312.81
2023-02-18T22:05:41.121Z,100320.88
2023-02-18T22:10:45.401Z,100315.63
2023-02-18T22:15:55.767Z,100317.84
2023-02-18T22:20:58.621Z,100320.75
2023-02-18T22:26:05.528Z,100329.81
2023-02-18T22:31:09.166Z,100327.41
2023-02-18T22:36:12.138Z,100331.06
2023-02-18T22:41:16.837Z,100322.88
2023-02-18T22:46:19.775Z,100325.69
2023-02-18T22:51:25.031Z,100323.09
2023-02-18T22:56:29.781Z,100317.50
2023-02-18T23:01:33.616Z,100315.88
2023-02-18T23:06:36.809Z,100307.81
2023-02-18T23:11:41.059Z,100306.88
2023-02-18T23:17:01.201Z,100308.66
2023-02-18T23:22:04.222Z,100298.31
2023-02-18T23:27:10.151Z,100302.84
2023-02-18T23:32:12.955Z,100295.41
2023-02-18T23:37:15.929Z,100301.41
2023-02-18T23:42:20.318Z,100298.59
2023-02-18T23:47:23.233Z,100287.59
2023-02-18T23:52:26.265Z,100275.16
2023-02-18T23:57:32.532Z,100270.88
